Time;durP1;ratioP1;P1;durP2;ratioP2;P2;SDS_P1;SDS_P2;PMS_P1;PMS_P2;Temp;Humidity;BMP_temperature;BMP_pressure;BME280_temperature;BME280_humidity;BME280_pressure;Samples;Min_cycle;Max_cycle;Signal;HPM_P1;HPM_P2
2022/12/20 00:01:54;;;;;;;12.57;9.47;;;3.90;99.90;;;-141.84;74.92;18724.66;5073797;28;20224;-64
2022/12/20 00:04:22;;;;;;;13.97;9.03;;;3.90;99.90;;;-141.84;75.30;18722.63;5073899;28;20195;-63
2022/12/20 00:06:50;;;;;;;13.90;9.23;;;3.90;99.90;;;-141.84;74.83;18726.69;5054039;28;20217;-64
2022/12/20 00:09:20;;;;;;;12.77;9.27;;;4.00;99.90;;;-141.84;74.71;18712.47;5067964;28;20242;-64
2022/12/20 00:11:48;;;;;;;14.07;9.80;;;4.00;99.90;;;-141.84;75.38;18738.88;5073535;28;20234;-64
2022/12/20 00:14:18;;;;;;;13.77;10.00;;;4.00;99.90;;;-141.84;74.26;18718.56;5073641;28;20244;-64
2022/12/20 00:16:46;;;;;;;15.63;10.20;;;4.10;99.90;;;-141.84;73.94;18738.88;5073512;28;20661;-64
2022/12/20 00:19:14;;;;;;;14.37;9.63;;;4.10;99.90;;;-141.84;74.00;18740.91;5073649;28;20232;-64
2022/12/20 00:21:42;;;;;;;13.77;9.50;;;4.20;99.90;;;-141.84;73.69;18771.38;5073862;28;20207;-64
2022/12/20 00:24:11;;;;;;;14.50;9.97;;;4.20;99.90;;;-141.84;74.20;18724.66;5073779;28;20605;-64
2022/12/20 00:26:39;;;;;;;14.10;9.87;;;4.10;99.90;;;-141.84;73.84;18749.03;5073131;28;20219;-64
2022/12/20 00:29:08;;;;;;;14.13;9.67;;;4.20;99.90;;;-141.84;73.55;18761.22;5073474;28;20231;-65
2022/12/20 00:31:37;;;;;;;12.67;9.50;;;4.20;99.90;;;-141.84;73.80;18742.94;5073499;28;20230;-64
2022/12/20 00:34:06;;;;;;;11.67;8.77;;;4.20;99.90;;;-141.84;73.64;18759.19;5073401;28;20760;-63
2022/12/20 00:36:34;;;;;;;12.93;9.73;;;4.20;99.90;;;-141.84;74.14;18718.56;5073379;28;20227;-65
2022/12/20 00:39:02;;;;;;;14.80;9.63;;;4.20;99.90;;;-141.84;74.31;18761.22;5073301;28;20230;-64
2022/12/20 00:41:33;;;;;;;15.30;9.50;;;4.20;99.90;;;-141.84;73.71;18763.25;5072444;28;20252;-65
2022/12/20 00:44:02;;;;;;;14.43;10.03;;;4.10;99.90;;;-141.84;74.29;18738.88;5073554;28;20314;-64
2022/12/20 00:46:32;;;;;;;14.40;9.40;;;4.10;99.90;;;-141.84;74.29;18704.31;5073608;28;20251;-64
2022/12/20 00:49:02;;;;;;;12.93;9.40;;;4.10;99.90;;;-141.84;74.40;18753.09;5073548;28;20184;-65
2022/12/20 00:51:32;;;;;;;12.37;8.63;;;4.10;99.90;;;-141.84;75.09;18749.03;5072854;28;20232;-64
2022/12/20 00:54:00;;;;;;;11.27;8.77;;;4.00;99.90;;;-141.84;75.72;18681.97;5073241;28;20308;-64
2022/12/20 00:56:28;;;;;;;13.87;9.90;;;3.90;99.90;;;-141.84;76.46;18728.72;5072836;28;20224;-64
2022/12/20 00:58:59;;;;;;;14.57;9.37;;;3.80;99.90;;;-141.84;76.30;18720.59;5072951;28;20236;-64
2022/12/20 01:01:30;;;;;;;13.73;9.43;;;3.80;99.90;;;-141.84;76.18;18708.41;5072721;28;20236;-64
2022/12/20 01:03:59;;;;;;;13.60;9.40;;;3.80;99.90;;;-141.84;76.37;18712.47;5073081;28;20194;-64
2022/12/20 01:06:30;;;;;;;12.57;9.27;;;3.80;99.90;;;-141.84;75.71;18751.06;5072584;28;20232;-64
2022/12/20 01:08:59;;;;;;;14.03;9.93;;;3.80;99.90;;;-141.84;75.61;18744.97;5073047;28;20350;-64
2022/12/20 01:11:30;;;;;;;15.70;9.80;;;3.80;99.90;;;-141.84;74.83;18783.56;5072768;28;20948;-66
2022/12/20 01:14:02;;;;;;;14.10;9.53;;;4.00;99.90;;;-141.84;74.66;18718.56;5072806;28;20249;-64
2022/12/20 01:16:34;;;;;;;15.00;9.73;;;4.00;99.90;;;-141.84;74.29;18767.31;5072622;28;20227;-64
2022/12/20 01:19:03;;;;;;;12.87;9.40;;;4.10;99.90;;;-141.84;73.96;18759.19;5072970;28;20211;-64
2022/12/20 01:21:34;;;;;;;13.67;9.30;;;4.10;99.90;;;-141.84;74.24;18740.91;5072185;28;20743;-63
2022/12/20 01:24:02;;;;;;;14.13;10.07;;;4.10;99.90;;;-141.84;73.64;18755.13;5072474;28;20228;-63
2022/12/20 01:26:30;;;;;;;14.40;9.47;;;4.20;99.90;;;-141.84;73.30;18753.09;5072216;28;20223;-63
2022/12/20 01:29:00;;;;;;;13.57;9.50;;;4.30;99.90;;;-141.84;73.57;18757.16;5072633;28;20248;-64
2022/12/20 01:31:30;;;;;;;12.47;9.33;;;4.30;99.90;;;-141.84;73.23;18763.25;5071830;28;20805;-66
2022/12/20 01:34:01;;;;;;;13.97;9.60;;;4.30;99.90;;;-141.84;73.22;18757.16;5072776;28;20299;-64
2022/12/20 01:36:34;;;;;;;13.90;9.43;;;4.40;99.90;;;-141.84;73.62;18757.16;5071856;28;20244;-63
2022/12/20 01:39:07;;;;;;;13.97;10.07;;;4.30;99.90;;;-141.84;73.54;18736.84;5071967;28;20235;-63
2022/12/20 01:41:37;;;;;;;15.47;10.30;;;4.30;99.90;;;-141.84;74.32;18744.97;5071781;28;20220;-64
2022/12/20 01:44:45;;;;;;;15.77;10.20;;;4.20;99.90;;;-141.84;74.86;18722.63;5071980;28;20254;-64
2022/12/20 01:47:14;;;;;;;15.33;9.73;;;4.20;99.90;;;-141.84;74.64;18738.88;5071319;28;20239;-64
2022/12/20 01:49:48;;;;;;;14.20;9.90;;;4.20;99.90;;;-141.84;73.75;18751.06;5071724;28;20224;-64
2022/12/20 01:52:25;;;;;;;13.73;9.40;;;4.40;99.90;;;-141.84;74.04;18767.31;5070859;28;20219;-64
2022/12/20 01:54:58;;;;;;;13.50;9.33;;;4.30;99.90;;;-141.84;73.90;18775.44;5072421;28;20537;-64
2022/12/20 01:57:34;;;;;;;13.57;9.73;;;4.30;99.90;;;-141.84;73.51;18775.44;5071399;28;20232;-65
2022/12/20 02:00:07;;;;;;;15.03;10.77;;;4.30;99.90;;;-141.84;74.17;18785.59;5071188;28;20610;-64
2022/12/20 02:02:36;;;;;;;14.43;9.30;;;4.30;99.90;;;-141.84;74.07;18773.41;5071330;28;20224;-64
2022/12/20 02:05:05;;;;;;;15.23;10.20;;;4.30;99.90;;;-141.84;73.18;18785.59;5075294;28;20259;-64
2022/12/20 02:07:38;;;;;;;14.87;9.90;;;4.40;99.90;;;-141.84;73.89;18757.16;5071440;28;20235;-65
2022/12/20 02:10:10;;;;;;;14.33;10.17;;;4.30;99.90;;;-141.84;73.96;18807.94;5071818;28;20192;-64
2022/12/20 02:12:41;;;;;;;14.07;9.63;;;4.30;99.90;;;-141.84;74.20;18740.91;5071244;28;20218;-65
2022/12/20 02:15:37;;;;;;;12.67;9.37;;;4.30;99.90;;;-141.84;73.88;18775.44;5070967;28;20229;-64
2022/12/20 02:18:22;;;;;;;13.50;9.83;;;4.30;99.90;;;-141.84;73.02;18791.69;5071083;28;20238;-65
2022/12/20 02:21:20;;;;;;;13.90;9.57;;;4.50;99.90;;;-141.84;73.15;18783.56;5070762;28;20238;-64
2022/12/20 02:24:39;;;;;;;14.87;9.53;;;4.50;99.90;;;-141.84;73.41;18797.78;5066897;28;20229;-63
2022/12/20 02:27:46;;;;;;;14.93;10.10;;;4.50;99.90;;;-141.84;74.12;18777.47;5071029;28;20231;-64
2022/12/20 02:30:19;;;;;;;12.30;9.10;;;4.40;99.90;;;-141.84;74.49;18779.50;5070384;28;20224;-63
2022/12/20 02:32:57;;;;;;;14.00;10.23;;;4.30;99.90;;;-141.84;74.33;18753.09;5071053;28;20583;-64
2022/12/20 02:35:31;;;;;;;15.43;10.67;;;4.40;99.90;;;-141.84;75.10;18749.03;5070834;28;20622;-65
2022/12/20 02:38:03;;;;;;;12.43;9.23;;;4.40;99.90;;;-141.84;76.11;18720.59;5070534;28;20718;-65
2022/12/20 02:40:40;;;;;;;15.03;10.70;;;4.30;99.90;;;-141.84;76.93;18749.03;5071122;28;20235;-65
2022/12/20 02:45:14;;;;;;;15.33;10.77;;;4.30;99.90;;;-141.84;77.83;18694.16;5070591;28;20203;-64
2022/12/20 02:46:03;;;;;;;15.97;10.53;;;4.20;99.90;;;-141.84;78.84;18724.66;5071465;28;20705;-64
2022/12/20 02:48:37;;;;;;;15.20;10.80;;;4.20;99.90;;;-141.84;79.28;18698.22;5071055;28;20227;-64
2022/12/20 02:51:08;;;;;;;16.07;10.40;;;4.20;99.90;;;-141.84;79.40;18696.19;5070964;28;20231;-63
2022/12/20 02:53:39;;;;;;;17.33;11.10;;;4.10;99.90;;;-141.84;80.37;18712.47;5070820;28;20248;-64
2022/12/20 02:56:20;;;;;;;16.77;10.37;;;4.10;99.90;;;-141.84;80.55;18684.00;5070898;28;20254;-64
2022/12/20 02:58:55;;;;;;;15.97;10.80;;;4.10;99.90;;;-141.84;81.36;18688.06;5050808;28;20225;-64
2022/12/20 03:01:31;;;;;;;17.57;12.00;;;4.00;99.90;;;-141.84;81.66;18688.06;5062630;28;20553;-64
2022/12/20 03:04:00;;;;;;;16.07;11.47;;;4.00;99.90;;;-141.84;81.78;18669.78;5073224;28;20211;-65
2022/12/20 03:06:29;;;;;;;17.50;12.00;;;4.10;99.90;;;-141.84;82.34;18659.63;5077251;28;20238;-64
2022/12/20 03:08:57;;;;;;;20.07;12.50;;;4.00;99.90;;;-141.84;83.10;18694.16;5077844;28;20234;-64
2022/12/20 03:11:26;;;;;;;17.20;12.43;;;4.00;99.90;;;-141.84;82.82;18619.00;5077755;28;20243;-64
2022/12/20 03:13:54;;;;;;;19.10;12.60;;;4.00;99.90;;;-141.84;83.57;18663.69;5077809;28;20223;-64
2022/12/20 03:16:23;;;;;;;16.17;11.77;;;4.00;99.90;;;-141.84;83.72;18639.31;5077845;28;20218;-63
2022/12/20 03:18:52;;;;;;;18.63;12.50;;;4.10;99.90;;;-141.84;83.90;18688.06;5078171;28;20264;-64
2022/12/20 03:21:20;;;;;;;19.93;12.80;;;4.00;99.90;;;-141.84;83.86;18653.53;5077537;28;20369;-63
2022/12/20 03:23:48;;;;;;;21.50;12.53;;;4.10;99.90;;;-141.84;83.97;18661.66;5077376;28;20726;-64
2022/12/20 03:26:16;;;;;;;19.00;12.60;;;4.10;99.90;;;-141.84;83.96;18643.38;5077247;28;20245;-63
2022/12/20 03:28:44;;;;;;;19.67;13.37;;;4.10;99.90;;;-141.84;84.30;18663.69;5077357;28;20231;-63
2022/12/20 03:31:13;;;;;;;22.77;13.50;;;4.10;99.90;;;-141.84;84.93;18623.06;5076920;28;20735;-64
2022/12/20 03:33:42;;;;;;;21.90;13.60;;;4.10;99.90;;;-141.84;85.31;18641.34;5077561;28;20226;-63
2022/12/20 03:36:11;;;;;;;19.53;13.10;;;4.10;99.90;;;-141.84;85.51;18635.25;5067112;28;20228;-64
2022/12/20 03:38:39;;;;;;;20.03;12.97;;;4.00;99.90;;;-141.84;85.13;18616.97;5074968;28;20260;-64
2022/12/20 03:41:07;;;;;;;18.93;13.47;;;4.10;99.90;;;-141.84;85.40;18637.28;5076990;28;20311;-64
2022/12/20 03:43:35;;;;;;;22.27;13.77;;;4.10;99.90;;;-141.84;85.36;18633.22;5077262;28;20229;-63
2022/12/20 03:46:03;;;;;;;22.00;13.60;;;4.10;99.90;;;-141.84;85.70;18604.78;5078028;28;20207;-64
2022/12/20 03:48:31;;;;;;;25.80;13.90;;;4.10;99.90;;;-141.84;86.11;18600.72;5076844;28;20836;-64
2022/12/20 03:51:01;;;;;;;20.27;14.17;;;4.10;99.90;;;-141.84;85.70;18619.00;5076727;28;20238;-65
2022/12/20 03:53:29;;;;;;;21.87;13.43;;;4.20;99.90;;;-141.84;85.39;18639.31;5077228;28;20230;-64
2022/12/20 03:55:57;;;;;;;19.83;13.20;;;4.20;99.90;;;-141.84;85.55;18633.22;5077287;28;20237;-64
2022/12/20 03:58:26;;;;;;;18.20;12.90;;;4.20;99.90;;;-141.84;85.97;18627.13;5077077;28;20203;-64
2022/12/20 04:00:54;;;;;;;18.60;13.27;;;4.10;99.90;;;-141.84;86.57;18612.91;5077635;28;20218;-65
2022/12/20 04:03:22;;;;;;;23.37;13.43;;;4.20;99.90;;;-141.84;86.54;18655.56;5076659;28;20231;-64
2022/12/20 04:05:50;;;;;;;20.80;13.97;;;4.20;99.90;;;-141.84;86.83;18621.03;5076429;28;20258;-63
2022/12/20 04:08:20;;;;;;;21.33;14.70;;;4.20;99.90;;;-141.84;87.25;18612.91;5077240;28;20235;-64
2022/12/20 04:13:33;;;;;;;22.27;14.10;;;4.20;99.90;;;-141.84;87.63;18586.50;5076856;28;20229;-62
2022/12/20 04:16:02;;;;;;;19.97;13.87;;;4.10;99.90;;;-141.84;87.41;18594.63;5074573;28;20256;-64
2022/12/20 04:18:30;;;;;;;20.30;14.20;;;4.20;99.90;;;-141.84;87.56;18639.31;5073754;28;20953;-64
2022/12/20 04:21:00;;;;;;;20.40;13.57;;;4.20;99.90;;;-141.84;87.10;18633.22;5072888;28;20705;-65
2022/12/20 04:23:30;;;;;;;21.07;14.00;;;4.30;99.90;;;-141.84;87.05;18592.59;5073585;28;20228;-66
2022/12/20 04:25:58;;;;;;;22.47;14.23;;;4.20;99.90;;;-141.84;87.63;18610.88;5073565;28;20230;-64
2022/12/20 04:28:26;;;;;;;20.40;13.30;;;4.20;99.90;;;-141.84;87.86;18596.66;5074007;28;20207;-65
2022/12/20 04:30:54;;;;;;;19.10;13.50;;;4.30;99.90;;;-141.84;86.66;18619.00;5073883;28;20196;-65
2022/12/20 04:33:23;;;;;;;20.80;13.07;;;4.30;99.90;;;-141.84;85.96;18627.13;5073535;28;20319;-65
2022/12/20 04:35:52;;;;;;;21.93;13.60;;;4.30;99.90;;;-141.84;86.42;18619.00;5072610;28;20237;-64
2022/12/20 04:38:23;;;;;;;18.20;13.47;;;4.30;99.90;;;-141.84;86.08;18631.19;5072905;28;20467;-63
2022/12/20 04:40:55;;;;;;;20.20;13.77;;;4.30;99.90;;;-141.84;86.65;18594.63;5072863;28;20929;-64
2022/12/20 04:43:24;;;;;;;21.17;14.17;;;4.20;99.90;;;-141.84;87.15;18627.13;5073383;28;20212;-63
2022/12/20 04:45:56;;;;;;;20.73;13.83;;;4.20;99.90;;;-141.84;87.20;18619.00;5073452;28;20208;-64
2022/12/20 04:48:26;;;;;;;22.83;14.30;;;4.20;99.90;;;-141.84;87.30;18600.72;5073117;28;20613;-64
2022/12/20 04:51:16;;;;;;;21.53;13.80;;;4.30;99.90;;;-141.84;87.26;18598.69;5072711;28;20301;-64
2022/12/20 04:53:47;;;;;;;21.27;13.63;;;4.20;99.90;;;-141.84;87.72;18649.47;5073066;28;20220;-64
2022/12/20 04:56:20;;;;;;;18.10;13.43;;;4.20;99.90;;;-141.84;87.90;18598.69;5072957;28;20594;-64
2022/12/20 04:58:52;;;;;;;19.90;12.90;;;4.20;99.90;;;-141.84;87.79;18574.28;5073206;28;20738;-64
2022/12/20 05:01:20;;;;;;;21.73;14.50;;;4.30;99.90;;;-141.84;87.56;18602.75;5072767;28;20208;-63
2022/12/20 05:03:49;;;;;;;18.63;13.60;;;4.30;99.90;;;-141.84;87.97;18604.78;5073020;28;20292;-63
2022/12/20 05:06:18;;;;;;;21.40;12.93;;;4.20;99.90;;;-141.84;87.75;18584.47;5072244;28;20235;-65
2022/12/20 05:08:47;;;;;;;20.53;13.60;;;4.30;99.90;;;-141.84;88.01;18612.91;5072437;28;20220;-64
2022/12/20 05:11:17;;;;;;;20.37;13.40;;;4.30;99.90;;;-141.84;87.79;18651.50;5072571;28;20228;-63
2022/12/20 05:13:45;;;;;;;19.00;13.23;;;4.30;99.90;;;-141.84;87.42;18629.16;5072490;28;20281;-64
2022/12/20 05:16:13;;;;;;;22.80;13.13;;;4.40;99.90;;;-141.84;86.94;18578.38;5072408;28;20551;-62
2022/12/20 05:18:42;;;;;;;19.77;13.40;;;4.50;99.90;;;-141.84;86.60;18602.75;5073013;28;20269;-63
2022/12/20 05:26:49;;;;;;;17.40;13.00;;;4.50;99.90;;;-141.84;85.72;18612.91;5072114;28;20250;-63
2022/12/20 05:29:17;;;;;;;18.20;12.73;;;4.70;99.90;;;-141.84;86.09;18633.22;5072341;28;20229;-64
2022/12/20 05:31:46;;;;;;;20.03;12.40;;;4.70;99.90;;;-141.84;85.26;18641.34;5072173;28;20264;-64
2022/12/20 05:34:14;;;;;;;20.33;13.63;;;4.80;99.90;;;-141.84;85.52;18635.25;5071999;28;20312;-63
2022/12/20 05:36:43;;;;;;;18.03;12.90;;;4.70;99.90;;;-141.84;85.69;18633.22;5072318;28;20674;-66
2022/12/20 05:39:11;;;;;;;16.23;11.93;;;4.70;99.90;;;-141.84;84.92;18639.31;5072045;28;20234;-64
2022/12/20 05:41:40;;;;;;;19.87;12.57;;;4.80;99.90;;;-141.84;85.39;18633.22;5071771;28;20219;-64
2022/12/20 05:44:09;;;;;;;20.23;12.80;;;4.90;99.90;;;-141.84;85.19;18610.88;5072364;28;20238;-64
2022/12/20 05:46:37;;;;;;;17.73;11.90;;;4.90;99.90;;;-141.84;85.06;18612.91;5072236;28;20220;-64
2022/12/20 05:49:06;;;;;;;16.37;12.00;;;5.00;99.90;;;-141.84;84.92;18631.19;5072161;28;20293;-66
2022/12/20 05:51:34;;;;;;;18.90;12.17;;;5.00;99.90;;;-141.84;84.69;18631.19;5072193;28;20281;-65
2022/12/20 05:54:02;;;;;;;17.73;12.10;;;4.90;99.90;;;-141.84;84.39;18651.50;5071916;28;20232;-65
2022/12/20 05:56:30;;;;;;;18.47;12.53;;;5.00;99.90;;;-141.84;84.48;18655.56;5071660;28;20236;-66
2022/12/20 05:58:58;;;;;;;17.97;12.53;;;5.00;99.90;;;-141.84;84.83;18631.19;5071981;28;20235;-65
2022/12/20 06:01:28;;;;;;;17.13;12.03;;;5.00;99.90;;;-141.84;85.16;18627.13;5071297;28;20220;-66
2022/12/20 06:03:56;;;;;;;15.60;12.00;;;5.00;99.90;;;-141.84;84.17;18661.66;5072131;28;20208;-65
2022/12/20 06:06:24;;;;;;;15.77;12.20;;;5.00;99.90;;;-141.84;84.34;18643.38;5071550;28;20231;-65
2022/12/20 06:08:54;;;;;;;19.57;12.10;;;5.00;99.90;;;-141.84;84.08;18647.44;5071718;28;20739;-66
2022/12/20 06:11:23;;;;;;;17.40;12.10;;;5.00;99.90;;;-141.84;84.38;18641.34;5071377;28;20229;-65
2022/12/20 06:13:58;;;;;;;15.63;11.80;;;5.00;99.90;;;-141.84;84.26;18631.19;5071482;28;20223;-65
2022/12/20 06:16:27;;;;;;;16.47;11.93;;;5.00;99.90;;;-141.84;84.44;18635.25;5071286;28;20227;-65
2022/12/20 06:18:56;;;;;;;18.37;12.27;;;5.00;99.90;;;-141.84;83.81;18627.13;5071663;28;20736;-66
2022/12/20 06:21:26;;;;;;;15.77;11.30;;;5.00;99.90;;;-141.84;83.19;18641.34;5071024;28;20228;-65
2022/12/20 06:23:55;;;;;;;17.00;12.20;;;5.10;99.90;;;-141.84;82.87;18667.75;5071786;28;20228;-65
2022/12/20 06:26:23;;;;;;;17.03;12.53;;;5.10;99.90;;;-141.84;83.34;18653.53;5071069;28;20220;-65
2022/12/20 06:28:55;;;;;;;16.33;11.10;;;5.10;99.90;;;-141.84;83.55;18669.78;5071513;28;20231;-64
2022/12/20 06:31:23;;;;;;;19.53;12.17;;;5.10;99.90;;;-141.84;82.99;18675.88;5070876;28;20632;-65
2022/12/20 06:33:53;;;;;;;18.27;11.53;;;5.10;99.90;;;-141.84;83.19;18665.72;5071251;28;20200;-64
2022/12/20 06:36:21;;;;;;;18.07;12.27;;;5.10;99.90;;;-141.84;83.20;18651.50;5070865;28;20612;-64
2022/12/20 06:38:49;;;;;;;17.73;11.23;;;5.10;99.90;;;-141.84;83.74;18655.56;5070669;28;20825;-65
2022/12/20 06:41:20;;;;;;;17.03;12.13;;;;;;;-141.84;84.26;18623.06;5070816;28;20239;-65
2022/12/20 06:43:48;;;;;;;16.10;11.47;;;5.10;99.90;;;-141.84;84.31;18627.13;5071301;28;20600;-65
2022/12/20 06:46:16;;;;;;;17.27;11.97;;;5.00;99.90;;;-141.84;84.63;18645.41;5070893;28;20226;-66
2022/12/20 06:48:45;;;;;;;17.03;12.13;;;4.90;99.90;;;-141.84;84.36;18665.72;5071304;28;20205;-66
2022/12/20 06:51:16;;;;;;;17.10;12.00;;;4.90;99.90;;;-141.84;84.09;18700.25;5070538;28;20220;-65
2022/12/20 06:53:44;;;;;;;18.03;11.80;;;5.00;99.90;;;-141.84;84.28;18657.59;5071079;28;20231;-64
2022/12/20 06:56:12;;;;;;;16.30;12.03;;;5.00;99.90;;;-141.84;84.23;18651.50;5070872;28;20600;-66
2022/12/20 06:58:40;;;;;;;16.07;11.67;;;5.00;99.90;;;-141.84;84.62;18649.47;5070763;28;20220;-65
2022/12/20 07:01:08;;;;;;;17.03;12.30;;;5.00;99.90;;;-141.84;85.29;18659.63;5070708;28;20212;-64
2022/12/20 07:03:36;;;;;;;19.70;12.90;;;4.90;99.90;;;-141.84;85.77;18637.28;5070980;28;20231;-66
2022/12/20 07:06:05;;;;;;;16.83;11.70;;;4.80;99.90;;;-141.84;86.02;18655.56;5070478;28;20228;-66
2022/12/20 07:08:35;;;;;;;15.53;11.43;;;4.90;99.90;;;-141.84;86.16;18639.31;5070393;28;20227;-66
2022/12/20 07:11:05;;;;;;;16.50;11.60;;;4.80;99.90;;;-141.84;86.23;18623.06;5070499;28;20228;-66
2022/12/20 07:13:34;;;;;;;16.93;12.40;;;;;;;-141.84;86.35;18610.88;5071172;28;20232;-65
2022/12/20 07:16:03;;;;;;;16.97;12.57;;;;;;;-141.84;86.57;18621.03;5071698;28;20197;-67
2022/12/20 07:18:34;;;;;;;19.60;12.10;;;;;;;-141.84;86.04;18627.13;5070837;28;20749;-65
2022/12/20 07:21:05;;;;;;;18.03;12.57;;;;;;;-141.84;85.68;18621.03;5070723;28;20231;-66
2022/12/20 07:23:35;;;;;;;16.53;11.23;;;;;;;-141.84;85.87;18635.25;5070806;28;20231;-64
2022/12/20 07:26:04;;;;;;;21.63;14.60;;;;;;;-141.84;85.09;18641.34;5070752;28;20722;-66
2022/12/20 07:28:33;;;;;;;15.87;11.57;;;;;;;-141.84;82.67;18673.84;5070650;28;20221;-65
2022/12/20 07:31:02;;;;;;;15.43;11.70;;;;;;;-141.84;81.92;18661.66;5071199;28;20676;-65
2022/12/20 07:33:30;;;;;;;17.17;12.10;;;;;;;-141.84;81.48;18665.72;5070617;28;20223;-66
2022/12/20 07:36:04;;;;;;;19.27;13.07;;;;;;;-141.84;81.22;18692.13;5070641;28;20235;-65
2022/12/20 07:38:32;;;;;;;19.03;12.50;;;;;;;-141.84;80.89;18696.19;5071023;28;20217;-66
2022/12/20 07:41:06;;;;;;;18.03;12.13;;;;;;;-141.84;80.98;18694.16;5070777;28;20733;-65
2022/12/20 07:43:34;;;;;;;15.17;11.87;;;;;;;-141.84;81.46;18679.94;5070792;28;20240;-65
2022/12/20 07:46:04;;;;;;;20.73;13.17;;;;;;;-141.84;81.41;18673.84;5071217;28;20212;-65
2022/12/20 07:48:34;;;;;;;17.87;12.83;;;;;;;-141.84;81.26;18655.56;5070916;28;20277;-64
2022/12/20 07:51:06;;;;;;;16.97;12.37;;;;;;;-141.84;81.07;18671.81;5071516;28;20224;-67
2022/12/20 07:53:38;;;;;;;16.43;12.20;;;;;;;-141.84;79.98;18688.06;5074527;28;20225;-64
2022/12/20 07:56:10;;;;;;;17.80;12.33;;;;;;;-141.84;79.51;18704.31;5074317;28;20734;-65
2022/12/20 07:58:42;;;;;;;18.43;12.20;;;;;;;-141.84;79.56;18712.47;5074104;28;20238;-65
2022/12/20 08:01:12;;;;;;;18.33;11.40;;;;;;;-141.84;78.56;18679.94;5074070;28;20192;-65
2022/12/20 08:03:47;;;;;;;17.70;12.07;;;;;;;-141.84;78.22;18710.44;5074290;28;20573;-66
2022/12/20 08:06:17;;;;;;;17.23;11.60;;;;;;;-141.84;78.31;18704.31;5073888;28;20224;-65
2022/12/20 08:08:51;;;;;;;17.77;11.60;;;5.70;99.90;;;-141.84;78.46;18716.53;5073816;28;20744;-66
2022/12/20 08:11:23;;;;;;;17.70;12.03;;;5.60;99.90;;;-141.84;78.46;18724.66;5074072;28;20243;-65
2022/12/20 08:13:52;;;;;;;20.23;12.10;;;;;;;-141.84;78.42;18734.81;5073984;28;20220;-65
2022/12/20 08:16:26;;;;;;;17.57;12.63;;;;;;;-141.84;78.30;18744.97;5074117;28;20239;-65
2022/12/20 08:18:57;;;;;;;15.53;11.33;;;5.40;99.90;;;-141.84;78.68;18718.56;5073978;28;20201;-65
2022/12/20 08:21:25;;;;;;;22.13;15.97;;;5.40;99.90;;;-141.84;79.55;18714.50;5073533;28;20323;-65
2022/12/20 08:23:53;;;;;;;18.43;12.30;;;5.30;99.90;;;-141.84;79.23;18708.41;5073457;28;20236;-66
2022/12/20 08:26:23;;;;;;;17.87;12.13;;;5.30;99.90;;;-141.84;79.72;18690.09;5073690;28;20239;-66
2022/12/20 08:28:52;;;;;;;17.87;12.60;;;5.30;99.90;;;-141.84;77.88;18722.63;5073185;28;20942;-66
2022/12/20 08:31:20;;;;;;;18.17;13.07;;;5.40;99.90;;;-141.84;78.13;18704.31;5073709;28;20566;-65
2022/12/20 08:33:48;;;;;;;19.47;13.57;;;5.30;99.90;;;-141.84;78.65;18722.63;5073491;28;20315;-64
2022/12/20 08:36:17;;;;;;;18.30;13.10;;;5.30;99.90;;;-141.84;78.77;18726.69;5073182;28;20229;-66
2022/12/20 08:38:45;;;;;;;22.27;12.90;;;5.20;99.90;;;-141.84;78.12;18740.91;5073348;28;20231;-64
2022/12/20 08:41:15;;;;;;;17.83;12.23;;;5.30;99.90;;;-141.84;78.69;18710.44;5073313;28;20225;-67
2022/12/20 08:43:45;;;;;;;15.87;12.50;;;5.30;99.90;;;-141.84;77.32;18814.03;5073260;28;20236;-66
2022/12/20 08:46:13;;;;;;;17.60;12.77;;;5.30;99.90;;;-141.84;77.48;18751.06;5073660;28;20211;-65
2022/12/20 08:48:41;;;;;;;19.23;13.27;;;5.40;99.90;;;-141.84;77.78;18724.66;5073991;28;20273;-65
2022/12/20 08:51:11;;;;;;;15.63;11.87;;;5.30;99.90;;;-141.84;77.95;18712.47;5073072;28;20220;-66
2022/12/20 08:53:40;;;;;;;18.73;13.07;;;5.30;99.90;;;-141.84;78.55;18740.91;5073011;28;20219;-64
2022/12/20 08:56:11;;;;;;;17.73;12.73;;;5.40;99.90;;;-141.84;78.60;18749.03;5073416;28;20229;-66
2022/12/20 08:58:41;;;;;;;18.87;12.70;;;5.40;99.90;;;-141.84;78.13;18724.66;5072806;28;20216;-66
2022/12/20 09:01:15;;;;;;;16.53;11.50;;;5.40;99.90;;;-141.84;78.19;18730.75;5072918;28;20207;-65
2022/12/20 09:03:44;;;;;;;16.70;12.43;;;5.50;99.90;;;-141.84;77.64;18751.06;5073082;28;20717;-66
2022/12/20 09:06:15;;;;;;;16.80;12.07;;;5.60;99.90;;;-141.84;77.79;18716.53;5072944;28;20224;-65
2022/12/20 09:08:43;;;;;;;16.50;12.30;;;5.60;99.90;;;-141.84;77.00;18761.22;5072669;28;20229;-66
2022/12/20 09:11:14;;;;;;;17.27;12.67;;;5.70;99.90;;;-141.84;77.48;18736.84;5072738;28;20774;-67
2022/12/20 09:13:45;;;;;;;17.07;12.27;;;5.60;99.90;;;-141.84;76.60;18789.66;5072630;28;20225;-65
2022/12/20 09:16:17;;;;;;;18.90;12.23;;;5.70;99.90;;;-141.84;76.13;18793.72;5072820;28;20203;-64
2022/12/20 09:18:49;;;;;;;16.73;12.17;;;5.80;99.90;;;-141.84;76.28;18740.91;5072947;28;20609;-66
2022/12/20 09:21:18;;;;;;;18.07;12.60;;;5.80;99.90;;;-141.84;77.01;18720.59;5072627;28;20232;-66
2022/12/20 09:23:50;;;;;;;17.20;12.20;;;5.80;99.90;;;-141.84;76.32;18771.38;5072182;28;20225;-66
2022/12/20 09:26:19;;;;;;;17.70;12.53;;;5.80;99.90;;;-141.84;76.21;18749.03;5072932;28;20588;-65
2022/12/20 09:28:49;;;;;;;16.37;12.60;;;5.80;99.90;;;-141.84;76.72;18769.34;5072428;28;20236;-66
2022/12/20 09:31:21;;;;;;;17.03;12.70;;;5.80;99.90;;;-141.84;76.56;18744.97;5072396;28;20668;-66
2022/12/20 09:33:50;;;;;;;16.77;12.33;;;5.80;99.90;;;-141.84;75.93;18779.50;5072980;28;20205;-65
2022/12/20 09:36:21;;;;;;;18.47;12.70;;;5.90;99.90;;;-141.84;76.08;18781.53;5072341;28;20225;-65
2022/12/20 09:38:50;;;;;;;18.23;12.63;;;6.00;99.90;;;-141.84;75.54;18759.19;5072246;28;20227;-66
2022/12/20 09:41:28;;;;;;;15.40;12.47;;;6.10;99.90;;;-141.84;76.03;18812.00;5072083;28;20331;-66
2022/12/20 09:43:59;;;;;;;17.97;12.63;;;;;;;-141.84;75.78;18783.56;5072081;28;20224;-66
2022/12/20 09:46:30;;;;;;;16.10;11.70;;;;;;;-141.84;74.89;18814.03;5071954;28;20235;-65
2022/12/20 09:49:02;;;;;;;18.77;12.00;;;6.30;99.90;;;-141.84;74.37;18822.19;5072146;28;20186;-65
2022/12/20 09:51:59;;;;;;;17.73;12.47;;;6.30;99.90;;;-141.84;74.78;18822.19;5071970;28;20225;-66
2022/12/20 09:54:42;;;;;;;16.27;11.87;;;6.30;99.90;;;-141.84;74.33;18822.19;5071826;28;20224;-66
2022/12/20 09:57:24;;;;;;;15.00;11.97;;;6.40;99.90;;;-141.84;75.68;18803.88;5071653;28;20217;-66
2022/12/20 09:59:55;;;;;;;17.13;12.63;;;6.30;99.90;;;-141.84;73.96;18830.31;5071843;28;20618;-65
2022/12/20 10:02:26;;;;;;;16.17;12.10;;;6.40;99.90;;;-141.84;73.12;18858.75;5052003;28;20265;-66
2022/12/20 10:05:20;;;;;;;15.40;11.10;;;6.50;99.90;;;-141.84;72.04;18852.66;5062557;28;20321;-66
2022/12/20 10:07:57;;;;;;;15.40;11.20;;;6.60;99.90;;;-141.84;72.47;18862.81;5071842;28;20224;-66
2022/12/20 10:10:54;;;;;;;14.87;11.00;;;6.60;99.90;;;-141.84;72.22;18899.38;5071554;28;20184;-65
2022/12/20 10:13:48;;;;;;;16.03;11.43;;;6.70;99.90;;;-141.84;72.39;18862.81;5071355;28;20280;-55
2022/12/20 10:16:36;;;;;;;15.63;10.97;;;6.60;99.90;;;-141.84;72.01;18862.81;5071856;28;20192;-55
2022/12/20 10:19:29;;;;;;;15.47;10.97;;;6.70;99.90;;;-141.84;72.02;18887.19;5072162;28;20181;-55
2022/12/20 10:22:11;;;;;;;14.70;10.67;;;6.70;99.90;;;-141.84;72.01;18895.31;5071776;28;20201;-55
2022/12/20 10:24:47;;;;;;;15.47;11.00;;;6.80;99.90;;;-141.84;71.94;18830.31;5071849;28;20217;-55
2022/12/20 10:27:18;;;;;;;14.10;10.57;;;6.80;99.90;;;-141.84;72.27;18870.94;5071413;28;20236;-53
2022/12/20 10:29:50;;;;;;;14.53;10.60;;;6.80;99.90;;;-141.84;71.48;18901.41;5071468;28;20236;-54
2022/12/20 10:32:22;;;;;;;15.10;10.23;;;6.80;99.90;;;-141.84;70.92;18893.28;5071544;28;20608;-55
2022/12/20 10:35:12;;;;;;;14.33;10.33;;;6.90;99.90;;;-141.84;71.18;18911.56;5071201;28;20232;-56